sensor_id;sensor_type;location;lat;lon;timestamp;pressure;altitude;pressure_sealevel;temperature;humidity
27334;BME280;14817;57.104;-2.094;2022-10-19T00:01:09;102282.09;;;6.93;92.14
27334;BME280;14817;57.104;-2.094;2022-10-19T00:03:37;102281.13;;;6.94;92.51
27334;BME280;14817;57.104;-2.094;2022-10-19T00:08:57;102276.22;;;7.03;93.16
27334;BME280;14817;57.104;-2.094;2022-10-19T00:11:26;102280.72;;;7.02;92.02
27334;BME280;14817;57.104;-2.094;2022-10-19T00:13:55;102269.00;;;6.89;92.06
27334;BME280;14817;57.104;-2.094;2022-10-19T00:16:22;102275.09;;;6.91;92.67
27334;BME280;14817;57.104;-2.094;2022-10-19T00:18:49;102268.50;;;6.98;92.13
27334;BME280;14817;57.104;-2.094;2022-10-19T00:21:18;102273.50;;;7.04;92.08
27334;BME280;14817;57.104;-2.094;2022-10-19T00:23:45;102267.19;;;7.05;92.19
27334;BME280;14817;57.104;-2.094;2022-10-19T00:26:12;102279.06;;;7.15;92.71
27334;BME280;14817;57.104;-2.094;2022-10-19T00:28:40;102271.22;;;7.12;92.14
27334;BME280;14817;57.104;-2.094;2022-10-19T00:31:13;102263.22;;;7.28;91.83
27334;BME280;14817;57.104;-2.094;2022-10-19T00:33:41;102266.50;;;7.18;92.25
27334;BME280;14817;57.104;-2.094;2022-10-19T00:36:34;102261.69;;;7.24;92.41
27334;BME280;14817;57.104;-2.094;2022-10-19T00:39:03;102267.25;;;7.35;92.52
27334;BME280;14817;57.104;-2.094;2022-10-19T00:41:32;102268.44;;;7.46;92.32
27334;BME280;14817;57.104;-2.094;2022-10-19T00:44:55;102273.22;;;7.55;91.67
27334;BME280;14817;57.104;-2.094;2022-10-19T00:46:59;102274.28;;;7.52;92.02
27334;BME280;14817;57.104;-2.094;2022-10-19T00:49:30;102283.03;;;7.54;92.01
27334;BME280;14817;57.104;-2.094;2022-10-19T00:52:08;102275.13;;;7.53;92.29
27334;BME280;14817;57.104;-2.094;2022-10-19T00:54:37;102277.22;;;7.48;91.70
27334;BME280;14817;57.104;-2.094;2022-10-19T00:57:06;102277.13;;;7.49;92.39
27334;BME280;14817;57.104;-2.094;2022-10-19T00:59:35;102278.84;;;7.50;91.51
27334;BME280;14817;57.104;-2.094;2022-10-19T01:02:04;102271.97;;;7.46;91.22
27334;BME280;14817;57.104;-2.094;2022-10-19T01:04:34;102276.03;;;7.38;91.30
27334;BME280;14817;57.104;-2.094;2022-10-19T01:07:03;102268.84;;;7.24;91.71
27334;BME280;14817;57.104;-2.094;2022-10-19T01:09:30;102264.19;;;7.11;91.57
27334;BME280;14817;57.104;-2.094;2022-10-19T01:34:03;102249.41;;;6.58;93.13
27334;BME280;14817;57.104;-2.094;2022-10-19T01:42:34;102246.94;;;6.38;93.16
27334;BME280;14817;57.104;-2.094;2022-10-19T01:47:39;102235.56;;;6.67;93.55
27334;BME280;14817;57.104;-2.094;2022-10-19T01:50:25;102230.59;;;6.77;93.58
27334;BME280;14817;57.104;-2.094;2022-10-19T01:52:54;102231.56;;;6.92;92.61
27334;BME280;14817;57.104;-2.094;2022-10-19T01:55:23;102232.22;;;6.80;92.62
27334;BME280;14817;57.104;-2.094;2022-10-19T01:57:57;102230.16;;;6.69;92.76
27334;BME280;14817;57.104;-2.094;2022-10-19T02:00:26;102235.91;;;6.93;94.60
27334;BME280;14817;57.104;-2.094;2022-10-19T02:02:54;102232.47;;;7.23;93.17
27334;BME280;14817;57.104;-2.094;2022-10-19T02:05:27;102240.56;;;7.51;93.11
27334;BME280;14817;57.104;-2.094;2022-10-19T02:07:59;102236.34;;;7.77;94.36
27334;BME280;14817;57.104;-2.094;2022-10-19T02:10:27;102239.91;;;7.92;93.63
27334;BME280;14817;57.104;-2.094;2022-10-19T02:12:55;102237.53;;;8.02;94.03
27334;BME280;14817;57.104;-2.094;2022-10-19T02:15:25;102231.94;;;8.21;94.71
27334;BME280;14817;57.104;-2.094;2022-10-19T02:17:54;102232.31;;;8.29;94.18
27334;BME280;14817;57.104;-2.094;2022-10-19T02:20:23;102235.38;;;8.37;94.89
27334;BME280;14817;57.104;-2.094;2022-10-19T02:22:49;102224.91;;;8.34;94.24
27334;BME280;14817;57.104;-2.094;2022-10-19T02:25:16;102227.00;;;8.44;94.10
27334;BME280;14817;57.104;-2.094;2022-10-19T02:27:43;102222.44;;;8.46;93.91
27334;BME280;14817;57.104;-2.094;2022-10-19T02:30:13;102213.06;;;8.53;93.58
27334;BME280;14817;57.104;-2.094;2022-10-19T02:32:42;102205.34;;;8.48;94.08
27334;BME280;14817;57.104;-2.094;2022-10-19T02:35:10;102205.25;;;8.64;93.97
27334;BME280;14817;57.104;-2.094;2022-10-19T02:37:38;102207.16;;;8.62;93.25
27334;BME280;14817;57.104;-2.094;2022-10-19T02:40:06;102204.94;;;8.69;93.06
27334;BME280;14817;57.104;-2.094;2022-10-19T02:42:41;102206.19;;;8.63;93.33
27334;BME280;14817;57.104;-2.094;2022-10-19T02:45:16;102203.66;;;8.47;93.28
27334;BME280;14817;57.104;-2.094;2022-10-19T02:47:53;102199.16;;;8.48;92.52
27334;BME280;14817;57.104;-2.094;2022-10-19T02:50:21;102190.47;;;8.44;92.14
27334;BME280;14817;57.104;-2.094;2022-10-19T02:52:48;102183.41;;;8.29;91.17
27334;BME280;14817;57.104;-2.094;2022-10-19T02:55:15;102188.06;;;8.25;90.51
27334;BME280;14817;57.104;-2.094;2022-10-19T02:57:42;102181.69;;;8.28;90.42
27334;BME280;14817;57.104;-2.094;2022-10-19T03:00:09;102185.13;;;8.30;89.81
27334;BME280;14817;57.104;-2.094;2022-10-19T03:02:36;102182.72;;;8.39;90.15
27334;BME280;14817;57.104;-2.094;2022-10-19T03:05:03;102174.06;;;8.36;90.65
27334;BME280;14817;57.104;-2.094;2022-10-19T03:07:30;102171.78;;;8.30;89.37
27334;BME280;14817;57.104;-2.094;2022-10-19T03:09:57;102169.97;;;8.30;89.39
27334;BME280;14817;57.104;-2.094;2022-10-19T03:12:24;102174.44;;;8.30;89.73
27334;BME280;14817;57.104;-2.094;2022-10-19T03:14:51;102167.31;;;8.30;90.23
27334;BME280;14817;57.104;-2.094;2022-10-19T03:17:18;102172.75;;;8.43;90.55
27334;BME280;14817;57.104;-2.094;2022-10-19T03:19:44;102167.50;;;8.42;89.53
27334;BME280;14817;57.104;-2.094;2022-10-19T03:22:12;102165.59;;;8.44;90.30
27334;BME280;14817;57.104;-2.094;2022-10-19T03:24:39;102164.06;;;8.39;90.26
27334;BME280;14817;57.104;-2.094;2022-10-19T03:27:06;102165.88;;;8.39;90.99
27334;BME280;14817;57.104;-2.094;2022-10-19T03:29:32;102166.72;;;8.54;90.23
27334;BME280;14817;57.104;-2.094;2022-10-19T03:31:59;102166.44;;;8.44;90.60
27334;BME280;14817;57.104;-2.094;2022-10-19T03:34:26;102165.97;;;8.52;89.59
27334;BME280;14817;57.104;-2.094;2022-10-19T03:36:52;102159.66;;;8.53;89.45
27334;BME280;14817;57.104;-2.094;2022-10-19T03:39:19;102166.63;;;8.55;90.04
27334;BME280;14817;57.104;-2.094;2022-10-19T03:41:46;102168.19;;;8.45;90.15
27334;BME280;14817;57.104;-2.094;2022-10-19T03:44:13;102163.78;;;8.44;90.60
27334;BME280;14817;57.104;-2.094;2022-10-19T03:46:40;102158.16;;;8.49;90.22
27334;BME280;14817;57.104;-2.094;2022-10-19T03:49:07;102155.16;;;8.53;90.28
27334;BME280;14817;57.104;-2.094;2022-10-19T03:51:35;102153.38;;;8.54;90.37
27334;BME280;14817;57.104;-2.094;2022-10-19T03:54:05;102160.34;;;8.56;90.38
27334;BME280;14817;57.104;-2.094;2022-10-19T03:56:33;102160.03;;;8.61;89.47
27334;BME280;14817;57.104;-2.094;2022-10-19T03:59:01;102167.09;;;8.62;89.69
27334;BME280;14817;57.104;-2.094;2022-10-19T04:01:34;102160.56;;;8.66;89.11
27334;BME280;14817;57.104;-2.094;2022-10-19T04:04:04;102156.69;;;8.57;88.30
27334;BME280;14817;57.104;-2.094;2022-10-19T04:06:34;102155.66;;;8.60;88.07
27334;BME280;14817;57.104;-2.094;2022-10-19T04:09:02;102152.09;;;8.59;88.02
27334;BME280;14817;57.104;-2.094;2022-10-19T04:11:30;102160.56;;;8.66;88.07
27334;BME280;14817;57.104;-2.094;2022-10-19T04:13:58;102156.22;;;8.65;88.26
27334;BME280;14817;57.104;-2.094;2022-10-19T04:16:27;102158.34;;;8.60;88.25
27334;BME280;14817;57.104;-2.094;2022-10-19T04:18:55;102160.13;;;8.59;88.34
27334;BME280;14817;57.104;-2.094;2022-10-19T04:23:53;102169.19;;;8.57;88.02
27334;BME280;14817;57.104;-2.094;2022-10-19T04:26:22;102169.00;;;8.60;88.15
27334;BME280;14817;57.104;-2.094;2022-10-19T04:28:49;102159.94;;;8.63;87.41
27334;BME280;14817;57.104;-2.094;2022-10-19T04:31:16;102157.28;;;8.63;86.81
27334;BME280;14817;57.104;-2.094;2022-10-19T04:33:43;102156.22;;;8.65;86.66
27334;BME280;14817;57.104;-2.094;2022-10-19T04:36:10;102157.81;;;8.68;85.33
27334;BME280;14817;57.104;-2.094;2022-10-19T04:38:37;102154.50;;;8.64;84.45
27334;BME280;14817;57.104;-2.094;2022-10-19T04:41:10;102147.97;;;8.68;84.25
27334;BME280;14817;57.104;-2.094;2022-10-19T04:43:38;102138.28;;;8.67;84.24
27334;BME280;14817;57.104;-2.094;2022-10-19T04:46:07;102144.09;;;8.59;84.13
27334;BME280;14817;57.104;-2.094;2022-10-19T04:48:35;102146.31;;;8.53;84.73
27334;BME280;14817;57.104;-2.094;2022-10-19T04:51:03;102143.19;;;8.46;84.81
27334;BME280;14817;57.104;-2.094;2022-10-19T04:53:31;102146.16;;;8.42;84.71
27334;BME280;14817;57.104;-2.094;2022-10-19T04:55:58;102150.13;;;8.49;84.60
27334;BME280;14817;57.104;-2.094;2022-10-19T04:58:26;102153.00;;;8.60;83.75
27334;BME280;14817;57.104;-2.094;2022-10-19T05:00:52;102148.94;;;8.67;83.87
27334;BME280;14817;57.104;-2.094;2022-10-19T05:03:19;102150.63;;;8.83;83.27
27334;BME280;14817;57.104;-2.094;2022-10-19T05:05:46;102141.84;;;8.81;82.22
27334;BME280;14817;57.104;-2.094;2022-10-19T05:08:13;102148.03;;;8.81;82.58
27334;BME280;14817;57.104;-2.094;2022-10-19T05:10:39;102148.59;;;8.86;82.15
27334;BME280;14817;57.104;-2.094;2022-10-19T05:13:12;102139.75;;;8.86;82.78
27334;BME280;14817;57.104;-2.094;2022-10-19T05:15:39;102136.44;;;8.95;81.97
27334;BME280;14817;57.104;-2.094;2022-10-19T05:18:05;102138.59;;;8.90;82.31
27334;BME280;14817;57.104;-2.094;2022-10-19T05:20:32;102135.47;;;8.96;80.43
27334;BME280;14817;57.104;-2.094;2022-10-19T05:22:59;102128.22;;;8.98;80.33
27334;BME280;14817;57.104;-2.094;2022-10-19T05:25:32;102128.13;;;8.99;81.22
27334;BME280;14817;57.104;-2.094;2022-10-19T05:27:59;102121.13;;;9.11;80.63
27334;BME280;14817;57.104;-2.094;2022-10-19T05:30:26;102119.69;;;9.06;80.73
27334;BME280;14817;57.104;-2.094;2022-10-19T05:32:52;102123.34;;;9.05;80.42
27334;BME280;14817;57.104;-2.094;2022-10-19T05:35:19;102122.88;;;8.98;81.26
27334;BME280;14817;57.104;-2.094;2022-10-19T05:37:53;102118.50;;;8.97;80.61
27334;BME280;14817;57.104;-2.094;2022-10-19T05:40:20;102114.09;;;8.96;80.59
27334;BME280;14817;57.104;-2.094;2022-10-19T05:42:46;102120.22;;;9.11;80.43
27334;BME280;14817;57.104;-2.094;2022-10-19T05:45:13;102123.97;;;9.08;79.09
27334;BME280;14817;57.104;-2.094;2022-10-19T05:47:40;102113.50;;;9.05;78.72
27334;BME280;14817;57.104;-2.094;2022-10-19T05:50:07;102120.13;;;9.12;77.33
27334;BME280;14817;57.104;-2.094;2022-10-19T05:52:34;102109.25;;;9.15;77.41
27334;BME280;14817;57.104;-2.094;2022-10-19T05:55:00;102100.59;;;9.25;77.31
27334;BME280;14817;57.104;-2.094;2022-10-19T05:57:27;102099.13;;;9.33;75.44
27334;BME280;14817;57.104;-2.094;2022-10-19T05:59:54;102092.59;;;9.25;75.59
27334;BME280;14817;57.104;-2.094;2022-10-19T06:02:23;102097.28;;;9.34;75.07
27334;BME280;14817;57.104;-2.094;2022-10-19T06:04:50;102099.53;;;9.27;74.19
27334;BME280;14817;57.104;-2.094;2022-10-19T06:07:17;102091.50;;;9.27;72.87
27334;BME280;14817;57.104;-2.094;2022-10-19T06:09:44;102099.34;;;9.30;73.43
27334;BME280;14817;57.104;-2.094;2022-10-19T06:12:11;102087.88;;;9.15;73.19
27334;BME280;14817;57.104;-2.094;2022-10-19T06:14:41;102092.78;;;9.22;73.96
27334;BME280;14817;57.104;-2.094;2022-10-19T06:17:08;102097.59;;;9.16;73.00
27334;BME280;14817;57.104;-2.094;2022-10-19T06:19:35;102099.50;;;9.14;71.79
27334;BME280;14817;57.104;-2.094;2022-10-19T06:22:02;102092.03;;;9.32;70.90
27334;BME280;14817;57.104;-2.094;2022-10-19T06:24:29;102093.53;;;9.36;70.82
27334;BME280;14817;57.104;-2.094;2022-10-19T06:26:55;102091.09;;;9.33;72.24
27334;BME280;14817;57.104;-2.094;2022-10-19T06:29:22;102096.19;;;9.24;71.19
27334;BME280;14817;57.104;-2.094;2022-10-19T06:31:49;102089.38;;;9.45;70.93
27334;BME280;14817;57.104;-2.094;2022-10-19T06:34:17;102088.66;;;9.43;70.04
27334;BME280;14817;57.104;-2.094;2022-10-19T06:36:44;102098.34;;;9.18;71.77
27334;BME280;14817;57.104;-2.094;2022-10-19T06:39:11;102097.38;;;9.19;72.13
27334;BME280;14817;57.104;-2.094;2022-10-19T06:41:37;102105.94;;;9.12;72.07
27334;BME280;14817;57.104;-2.094;2022-10-19T06:44:16;102104.50;;;9.06;72.26
27334;BME280;14817;57.104;-2.094;2022-10-19T06:46:43;102102.91;;;9.04;73.19
27334;BME280;14817;57.104;-2.094;2022-10-19T06:49:11;102099.56;;;9.00;72.30
27334;BME280;14817;57.104;-2.094;2022-10-19T06:51:38;102107.09;;;9.08;72.05
27334;BME280;14817;57.104;-2.094;2022-10-19T06:54:06;102101.13;;;9.30;70.05
27334;BME280;14817;57.104;-2.094;2022-10-19T06:56:33;102103.06;;;9.28;69.66
27334;BME280;14817;57.104;-2.094;2022-10-19T06:59:00;102103.16;;;9.13;69.45
27334;BME280;14817;57.104;-2.094;2022-10-19T07:01:26;102102.94;;;9.16;69.57
27334;BME280;14817;57.104;-2.094;2022-10-19T07:03:53;102109.66;;;9.09;70.68
27334;BME280;14817;57.104;-2.094;2022-10-19T07:06:21;102115.31;;;9.05;70.80
27334;BME280;14817;57.104;-2.094;2022-10-19T07:08:48;102110.84;;;9.05;71.41
27334;BME280;14817;57.104;-2.094;2022-10-19T07:11:17;102113.69;;;9.02;71.07
27334;BME280;14817;57.104;-2.094;2022-10-19T07:13:44;102109.31;;;9.01;71.01
27334;BME280;14817;57.104;-2.094;2022-10-19T07:16:13;102113.69;;;9.02;72.44
27334;BME280;14817;57.104;-2.094;2022-10-19T07:18:47;102107.59;;;9.00;72.45
27334;BME280;14817;57.104;-2.094;2022-10-19T07:21:15;102099.56;;;9.00;73.87
27334;BME280;14817;57.104;-2.094;2022-10-19T07:23:44;102104.06;;;8.99;73.82
27334;BME280;14817;57.104;-2.094;2022-10-19T07:26:20;102098.41;;;9.04;73.73
27334;BME280;14817;57.104;-2.094;2022-10-19T07:28:49;102095.22;;;8.99;73.90
27334;BME280;14817;57.104;-2.094;2022-10-19T07:31:20;102088.88;;;9.00;70.66
27334;BME280;14817;57.104;-2.094;2022-10-19T07:33:51;102093.63;;;9.09;72.40
27334;BME280;14817;57.104;-2.094;2022-10-19T07:36:19;102088.47;;;9.06;73.85
27334;BME280;14817;57.104;-2.094;2022-10-19T07:38:46;102096.41;;;9.08;74.22
27334;BME280;14817;57.104;-2.094;2022-10-19T07:41:15;102101.84;;;9.06;75.17
27334;BME280;14817;57.104;-2.094;2022-10-19T07:43:43;102096.72;;;9.03;75.98
27334;BME280;14817;57.104;-2.094;2022-10-19T07:46:13;102104.09;;;9.12;75.67
27334;BME280;14817;57.104;-2.094;2022-10-19T07:48:41;102101.09;;;9.04;75.58
27334;BME280;14817;57.104;-2.094;2022-10-19T07:51:10;102102.00;;;9.17;74.06
27334;BME280;14817;57.104;-2.094;2022-10-19T07:53:37;102103.25;;;9.12;74.80
27334;BME280;14817;57.104;-2.094;2022-10-19T07:56:25;102099.63;;;9.26;73.09
27334;BME280;14817;57.104;-2.094;2022-10-19T07:58:54;102110.53;;;9.10;73.72
27334;BME280;14817;57.104;-2.094;2022-10-19T08:01:23;102106.03;;;9.10;73.32
27334;BME280;14817;57.104;-2.094;2022-10-19T08:03:53;102112.38;;;9.22;73.87
27334;BME280;14817;57.104;-2.094;2022-10-19T08:06:40;102109.78;;;9.20;73.85
27334;BME280;14817;57.104;-2.094;2022-10-19T08:09:06;102112.69;;;9.17;74.24
27334;BME280;14817;57.104;-2.094;2022-10-19T08:11:34;102112.03;;;9.14;74.67
27334;BME280;14817;57.104;-2.094;2022-10-19T08:14:01;102108.06;;;9.19;74.68
27334;BME280;14817;57.104;-2.094;2022-10-19T08:16:36;102096.84;;;9.14;74.51
27334;BME280;14817;57.104;-2.094;2022-10-19T08:19:08;102094.16;;;9.14;73.63
27334;BME280;14817;57.104;-2.094;2022-10-19T08:21:37;102089.56;;;9.16;73.80
27334;BME280;14817;57.104;-2.094;2022-10-19T08:24:05;102081.56;;;9.16;73.60
27334;BME280;14817;57.104;-2.094;2022-10-19T08:26:34;102092.78;;;9.22;73.02
27334;BME280;14817;57.104;-2.094;2022-10-19T08:29:05;102092.34;;;9.28;73.04
27334;BME280;14817;57.104;-2.094;2022-10-19T08:31:33;102090.66;;;9.27;72.56
27334;BME280;14817;57.104;-2.094;2022-10-19T08:34:00;102085.31;;;9.27;72.09
27334;BME280;14817;57.104;-2.094;2022-10-19T08:36:27;102085.66;;;9.35;71.36
27334;BME280;14817;57.104;-2.094;2022-10-19T08:38:57;102085.09;;;9.30;71.70
27334;BME280;14817;57.104;-2.094;2022-10-19T08:49:40;102081.47;;;9.31;70.89
27334;BME280;14817;57.104;-2.094;2022-10-19T08:52:13;102079.13;;;9.52;69.91
27334;BME280;14817;57.104;-2.094;2022-10-19T08:54:52;102082.84;;;9.36;70.95
27334;BME280;14817;57.104;-2.094;2022-10-19T09:03:30;102076.56;;;9.37;70.25
27334;BME280;14817;57.104;-2.094;2022-10-19T09:06:28;102076.88;;;9.33;71.44
27334;BME280;14817;57.104;-2.094;2022-10-19T09:08:57;102065.00;;;9.37;71.52
27334;BME280;14817;57.104;-2.094;2022-10-19T09:11:31;102071.84;;;9.41;70.90
27334;BME280;14817;57.104;-2.094;2022-10-19T09:14:12;102070.97;;;9.40;71.57
27334;BME280;14817;57.104;-2.094;2022-10-19T09:16:41;102067.34;;;9.42;72.47
27334;BME280;14817;57.104;-2.094;2022-10-19T09:19:27;102064.34;;;9.46;73.45
27334;BME280;14817;57.104;-2.094;2022-10-19T09:22:03;102057.28;;;9.45;74.46
27334;BME280;14817;57.104;-2.094;2022-10-19T09:24:50;102052.25;;;9.53;74.21
27334;BME280;14817;57.104;-2.094;2022-10-19T09:29:54;102051.03;;;9.83;71.66
27334;BME280;14817;57.104;-2.094;2022-10-19T09:32:36;102050.44;;;9.67;71.08
27334;BME280;14817;57.104;-2.094;2022-10-19T09:35:52;102056.84;;;9.64;71.18
27334;BME280;14817;57.104;-2.094;2022-10-19T09:38:14;102036.19;;;9.66;72.25
27334;BME280;14817;57.104;-2.094;2022-10-19T09:40:45;102045.50;;;9.73;70.78
27334;BME280;14817;57.104;-2.094;2022-10-19T09:43:12;102042.94;;;9.72;69.52
27334;BME280;14817;57.104;-2.094;2022-10-19T09:46:12;102036.31;;;9.65;70.58
27334;BME280;14817;57.104;-2.094;2022-10-19T09:48:50;102043.69;;;9.74;69.59
27334;BME280;14817;57.104;-2.094;2022-10-19T09:51:19;102039.84;;;9.65;70.82
27334;BME280;14817;57.104;-2.094;2022-10-19T09:53:50;102041.31;;;9.82;70.45
27334;BME280;14817;57.104;-2.094;2022-10-19T09:56:20;102042.09;;;9.71;69.96
27334;BME280;14817;57.104;-2.094;2022-10-19T09:58:49;102046.38;;;9.74;69.64
27334;BME280;14817;57.104;-2.094;2022-10-19T10:01:29;102033.00;;;9.74;69.00
27334;BME280;14817;57.104;-2.094;2022-10-19T10:04:17;102029.22;;;9.76;69.48
27334;BME280;14817;57.104;-2.094;2022-10-19T10:06:46;102026.94;;;9.96;68.89
27334;BME280;14817;57.104;-2.094;2022-10-19T10:09:15;102029.88;;;9.80;69.70
27334;BME280;14817;57.104;-2.094;2022-10-19T10:11:45;102024.63;;;9.78;68.98
27334;BME280;14817;57.104;-2.094;2022-10-19T10:14:23;102031.13;;;9.87;71.62
27334;BME280;14817;57.104;-2.094;2022-10-19T10:16:55;102024.28;;;9.83;71.38
27334;BME280;14817;57.104;-2.094;2022-10-19T10:19:27;102028.78;;;9.82;71.67
27334;BME280;14817;57.104;-2.094;2022-10-19T10:21:54;102013.94;;;10.02;70.19
27334;BME280;14817;57.104;-2.094;2022-10-19T10:24:24;102019.16;;;10.17;69.34
27334;BME280;14817;57.104;-2.094;2022-10-19T10:26:54;102000.59;;;10.39;66.83
27334;BME280;14817;57.104;-2.094;2022-10-19T10:31:58;102005.09;;;10.02;68.16
27334;BME280;14817;57.104;-2.094;2022-10-19T10:34:36;102001.84;;;10.10;68.16
27334;BME280;14817;57.104;-2.094;2022-10-19T10:37:36;102008.16;;;10.09;68.64
27334;BME280;14817;57.104;-2.094;2022-10-19T10:40:05;102004.00;;;10.05;68.37
27334;BME280;14817;57.104;-2.094;2022-10-19T10:42:48;102019.16;;;10.17;67.54
27334;BME280;14817;57.104;-2.094;2022-10-19T10:45:25;102015.00;;;10.13;67.60
27334;BME280;14817;57.104;-2.094;2022-10-19T10:47:55;102016.31;;;10.07;67.25
27334;BME280;14817;57.104;-2.094;2022-10-19T10:50:29;102033.16;;;9.96;66.60
27334;BME280;14817;57.104;-2.094;2022-10-19T10:53:03;102024.00;;;10.12;67.49
27334;BME280;14817;57.104;-2.094;2022-10-19T10:55:31;102019.00;;;10.07;66.44
27334;BME280;14817;57.104;-2.094;2022-10-19T10:58:14;102016.03;;;10.23;66.30
27334;BME280;14817;57.104;-2.094;2022-10-19T11:00:44;102008.75;;;10.25;66.01
27334;BME280;14817;57.104;-2.094;2022-10-19T11:03:20;102011.50;;;10.36;66.99
27334;BME280;14817;57.104;-2.094;2022-10-19T11:05:55;102015.97;;;10.12;68.34
27334;BME280;14817;57.104;-2.094;2022-10-19T11:08:45;102008.06;;;10.10;69.43
27334;BME280;14817;57.104;-2.094;2022-10-19T11:11:35;102008.41;;;10.06;69.25
27334;BME280;14817;57.104;-2.094;2022-10-19T11:16:54;101999.91;;;10.12;69.83
27334;BME280;14817;57.104;-2.094;2022-10-19T11:19:39;102003.09;;;10.17;71.16
27334;BME280;14817;57.104;-2.094;2022-10-19T11:22:26;101999.78;;;10.13;69.47
27334;BME280;14817;57.104;-2.094;2022-10-19T11:26:06;102001.06;;;10.20;69.55
27334;BME280;14817;57.104;-2.094;2022-10-19T11:33:43;101983.72;;;10.13;69.25
27334;BME280;14817;57.104;-2.094;2022-10-19T11:36:45;101981.69;;;10.17;70.06
27334;BME280;14817;57.104;-2.094;2022-10-19T11:42:23;101970.56;;;10.10;70.12
27334;BME280;14817;57.104;-2.094;2022-10-19T11:54:02;101963.78;;;9.93;71.09
27334;BME280;14817;57.104;-2.094;2022-10-19T11:56:48;101957.25;;;9.97;69.24
27334;BME280;14817;57.104;-2.094;2022-10-19T12:12:55;101948.47;;;9.95;66.46
27334;BME280;14817;57.104;-2.094;2022-10-19T12:15:33;101945.91;;;9.94;67.54
27334;BME280;14817;57.104;-2.094;2022-10-19T12:20:43;101930.72;;;9.94;68.87
27334;BME280;14817;57.104;-2.094;2022-10-19T12:23:36;101937.59;;;9.86;69.54
27334;BME280;14817;57.104;-2.094;2022-10-19T12:26:10;101934.06;;;9.85;70.03
27334;BME280;14817;57.104;-2.094;2022-10-19T12:28:42;101928.72;;;9.85;70.41
27334;BME280;14817;57.104;-2.094;2022-10-19T12:31:13;101926.28;;;9.82;71.35
27334;BME280;14817;57.104;-2.094;2022-10-19T12:36:48;101919.50;;;9.89;73.33
27334;BME280;14817;57.104;-2.094;2022-10-19T12:39:42;101917.44;;;9.69;74.35
27334;BME280;14817;57.104;-2.094;2022-10-19T12:47:24;101899.91;;;9.65;74.57
27334;BME280;14817;57.104;-2.094;2022-10-19T12:49:52;101899.56;;;9.69;73.90
27334;BME280;14817;57.104;-2.094;2022-10-19T12:52:41;101896.78;;;9.71;72.81
27334;BME280;14817;57.104;-2.094;2022-10-19T12:55:11;101905.13;;;9.66;71.60
27334;BME280;14817;57.104;-2.094;2022-10-19T12:57:38;101889.22;;;9.65;72.77
27334;BME280;14817;57.104;-2.094;2022-10-19T13:00:30;101889.22;;;9.65;74.01
27334;BME280;14817;57.104;-2.094;2022-10-19T13:05:31;101886.25;;;9.56;74.18
27334;BME280;14817;57.104;-2.094;2022-10-19T13:08:04;101872.63;;;9.59;73.35
27334;BME280;14817;57.104;-2.094;2022-10-19T13:10:36;101870.94;;;9.58;73.37
27334;BME280;14817;57.104;-2.094;2022-10-19T13:13:03;101870.94;;;9.58;73.80
27334;BME280;14817;57.104;-2.094;2022-10-19T13:21:07;101848.66;;;9.58;73.62
27334;BME280;14817;57.104;-2.094;2022-10-19T13:23:39;101840.38;;;9.50;73.00
27334;BME280;14817;57.104;-2.094;2022-10-19T13:26:30;101835.34;;;9.45;72.88
27334;BME280;14817;57.104;-2.094;2022-10-19T13:28:58;101835.88;;;9.50;72.91
27334;BME280;14817;57.104;-2.094;2022-10-19T13:31:29;101842.38;;;9.59;72.31
27334;BME280;14817;57.104;-2.094;2022-10-19T13:33:57;101831.75;;;9.57;73.01
27334;BME280;14817;57.104;-2.094;2022-10-19T13:36:24;101828.94;;;9.48;73.70
27334;BME280;14817;57.104;-2.094;2022-10-19T13:49:19;101809.81;;;9.65;72.12
27334;BME280;14817;57.104;-2.094;2022-10-19T13:52:36;101806.88;;;9.68;71.23
27334;BME280;14817;57.104;-2.094;2022-10-19T14:03:37;101788.91;;;9.70;71.48
27334;BME280;14817;57.104;-2.094;2022-10-19T14:11:50;101771.16;;;9.69;68.73
27334;BME280;14817;57.104;-2.094;2022-10-19T14:14:23;101781.88;;;9.69;68.85
27334;BME280;14817;57.104;-2.094;2022-10-19T14:19:26;101774.69;;;9.70;69.08
27334;BME280;14817;57.104;-2.094;2022-10-19T14:21:59;101776.13;;;9.63;73.61
27334;BME280;14817;57.104;-2.094;2022-10-19T14:24:30;101776.34;;;9.59;74.33
27334;BME280;14817;57.104;-2.094;2022-10-19T14:27:05;101776.59;;;9.56;73.87
27334;BME280;14817;57.104;-2.094;2022-10-19T14:29:48;101774.88;;;9.55;73.79
27334;BME280;14817;57.104;-2.094;2022-10-19T14:32:18;101762.22;;;9.57;73.85
27334;BME280;14817;57.104;-2.094;2022-10-19T14:34:47;101756.66;;;9.60;74.09
27334;BME280;14817;57.104;-2.094;2022-10-19T14:37:24;101752.56;;;9.68;73.58
27334;BME280;14817;57.104;-2.094;2022-10-19T14:40:41;101746.25;;;9.69;72.57
27334;BME280;14817;57.104;-2.094;2022-10-19T14:42:44;101745.63;;;9.65;72.90
27334;BME280;14817;57.104;-2.094;2022-10-19T14:45:23;101738.72;;;9.85;72.20
27334;BME280;14817;57.104;-2.094;2022-10-19T14:48:05;101740.28;;;9.76;71.57
27334;BME280;14817;57.104;-2.094;2022-10-19T14:50:48;101735.19;;;9.73;71.96
27334;BME280;14817;57.104;-2.094;2022-10-19T14:56:00;101725.50;;;9.84;71.93
27334;BME280;14817;57.104;-2.094;2022-10-19T14:58:31;101732.72;;;9.70;71.42
27334;BME280;14817;57.104;-2.094;2022-10-19T15:01:01;101713.63;;;9.64;71.04
27334;BME280;14817;57.104;-2.094;2022-10-19T15:03:28;101721.44;;;9.67;71.82
27334;BME280;14817;57.104;-2.094;2022-10-19T15:06:01;101710.94;;;9.52;71.77
27334;BME280;14817;57.104;-2.094;2022-10-19T15:08:34;101720.16;;;9.48;72.47
27334;BME280;14817;57.104;-2.094;2022-10-19T15:11:04;101714.06;;;9.46;72.92
27334;BME280;14817;57.104;-2.094;2022-10-19T15:13:35;101706.00;;;9.35;74.46
27334;BME280;14817;57.104;-2.094;2022-10-19T15:16:06;101709.88;;;9.31;75.35
27334;BME280;14817;57.104;-2.094;2022-10-19T15:18:52;101701.13;;;9.29;76.04
27334;BME280;14817;57.104;-2.094;2022-10-19T15:21:19;101695.97;;;9.26;76.04
27334;BME280;14817;57.104;-2.094;2022-10-19T15:23:49;101693.56;;;9.23;76.38
27334;BME280;14817;57.104;-2.094;2022-10-19T15:26:20;101693.31;;;9.26;75.41
27334;BME280;14817;57.104;-2.094;2022-10-19T15:28:47;101690.78;;;9.24;75.78
27334;BME280;14817;57.104;-2.094;2022-10-19T15:31:24;101685.56;;;9.34;76.18